Time;durP1;ratioP1;P1;durP2;ratioP2;P2;SDS_P1;SDS_P2;PMS_P1;PMS_P2;Temp;Humidity;BMP_temperature;BMP_pressure;BME280_temperature;BME280_humidity;BME280_pressure;Samples;Min_cycle;Max_cycle;Signal;HPM_P1;HPM_P2
2020/12/09 00:01:31;;;;;;;;;;;;;;;;;;6065728;23;1417;-79
2020/12/09 00:04:00;;;;;;;;;;;;;;;;;;6066018;23;996;-78
2020/12/09 00:06:26;;;;;;;;;;;;;;;;;;6065321;23;1056;-80
2020/12/09 00:08:52;;;;;;;;;;;;;;;;;;6065848;23;953;-78
2020/12/09 00:11:18;;;;;;;;;;;;;;;;;;6064432;23;1897;-78
2020/12/09 00:13:45;;;;;;;;;;;;;;;;;;6066156;23;1139;-79
2020/12/09 00:16:12;;;;;;;;;;;;;;;;;;6064602;23;1384;-78
2020/12/09 00:18:38;;;;;;;;;;;;;;;;;;6066044;23;1408;-79
2020/12/09 00:21:04;;;;;;;;;;;;;;;;;;6066384;23;1237;-79
2020/12/09 00:23:30;;;;;;;;;;;;;;;;;;6066494;23;1068;-80
2020/12/09 00:25:56;;;;;;;;;;;;;;;;;;6065577;23;1101;-79
2020/12/09 00:28:23;;;;;;;;;;;;;;;;;;6065117;23;1052;-80
2020/12/09 00:30:49;;;;;;;;;;;;;;;;;;6065489;23;1033;-78
2020/12/09 00:33:16;;;;;;;;;;;;;;;;;;6067500;23;1901;-79
2020/12/09 00:35:42;;;;;;;;;;;;;;;;;;6065715;23;1116;-78
2020/12/09 00:38:09;;;;;;;;;;;;;;;;;;6065038;23;1078;-81
2020/12/09 00:40:35;;;;;;;;;;;;;;;;;;6064276;23;1307;-79
2020/12/09 00:43:01;;;;;;;;;;;;;;;;;;6065720;23;1036;-79
2020/12/09 00:45:27;;;;;;;;;;;;;;;;;;6066235;23;1060;-79
2020/12/09 00:47:53;;;;;;;;;;;;;;;;;;6067170;23;1088;-79
2020/12/09 00:50:29;;;;;;;;;;;;;;;;;;6064917;23;1277;-79
2020/12/09 00:52:56;;;;;;;;;;;;;;;;;;6065246;23;1897;-79
2020/12/09 00:55:22;;;;;;;;;;;;;;;;;;6065934;23;1088;-79
2020/12/09 00:57:49;;;;;;;;;;;;;;;;;;6064804;23;1227;-78
2020/12/09 01:00:15;;;;;;;;;;;;;;;;;;6065880;23;1040;-78
2020/12/09 01:02:41;;;;;;;;;;;;;;;;;;6065820;23;1128;-79
2020/12/09 01:05:08;;;;;;;;;;;;;;;;;;6065393;23;1048;-78
2020/12/09 01:07:35;;;;;;;;;;;;;;;;;;6065771;23;1004;-80
2020/12/09 01:10:02;;;;;;;;;;;;;;;;;;6066996;23;1555;-77
2020/12/09 01:12:28;;;;;;;;;;;;;;;;;;6067432;23;1897;-78
2020/12/09 01:17:50;;;;;;;;;;;;;;;;;;6045484;23;1609;-79
2020/12/09 01:20:16;;;;;;;;;;;;;;;;;;6088230;23;1947;-80
2020/12/09 01:22:44;;;;;;;;;;;;;;;;;;6096972;23;1053;-79
2020/12/09 01:25:10;;;;;;;;;;;;;;;;;;6099010;23;1119;-80
2020/12/09 01:27:36;;;;;;;;;;;;;;;;;;6098302;23;1548;-79
2020/12/09 01:30:02;;;;;;;;;;;;;;;;;;6098906;23;1369;-79
2020/12/09 01:32:28;;;;;;;;;;;;;;;;;;6100342;23;1905;-79
2020/12/09 01:34:54;;;;;;;;;;;;;;;;;;6100102;23;1094;-80
2020/12/09 01:37:22;;;;;;;;;;;;;;;;;;6125889;23;1054;-80
2020/12/09 01:39:48;;;;;;;;;;;;;;;;;;6126275;23;1082;-78
2020/12/09 01:42:15;;;;;;;;;;;;;;;;;;6126123;23;1058;-79
2020/12/09 01:44:41;;;;;;;;;;;;;;;;;;6128707;23;1030;-78
2020/12/09 01:47:07;;;;;;;;;;;;;;;;;;6123643;23;1043;-79
2020/12/09 01:49:34;;;;;;;;;;;;;;;;;;6123583;23;971;-79
2020/12/09 01:52:00;;;;;;;;;;;;;;;;;;6124100;23;1897;-78
2020/12/09 01:54:26;;;;;;;;;;;;;;;;;;6125241;23;1244;-79
2020/12/09 01:57:10;;;;;;;;;;;;;;;;;;6125383;23;1078;-79
2020/12/09 01:59:36;;;;;;;;;;;;;;;;;;6125667;23;1130;-79
2020/12/09 02:02:02;;;;;;;;;;;;;;;;;;6125805;23;968;-79
2020/12/09 02:04:28;;;;;;;;;;;;;;;;;;6125886;23;1517;-77
2020/12/09 02:06:54;;;;;;;;;;;;;;;;;;6125521;23;1055;-80
2020/12/09 02:09:21;;;;;;;;;;;;;;;;;;6124056;23;1074;-78
2020/12/09 02:11:47;;;;;;;;;;;;;;;;;;6126161;23;1932;-79
2020/12/09 02:14:14;;;;;;;;;;;;;;;;;;6125980;23;1099;-78
2020/12/09 02:16:40;;;;;;;;;;;;;;;;;;6124862;23;1042;-78
2020/12/09 02:19:06;;;;;;;;;;;;;;;;;;6097391;23;1251;-79
2020/12/09 02:21:34;;;;;;;;;;;;;;;;;;6120275;23;1308;-78
2020/12/09 02:24:00;;;;;;;;;;;;;;;;;;6123268;23;1025;-78
2020/12/09 02:26:26;;;;;;;;;;;;;;;;;;6125006;23;773;-79
2020/12/09 02:28:52;;;;;;;;;;;;;;;;;;6124827;23;1062;-78
2020/12/09 02:31:18;;;;;;;;;;;;;;;;;;6125083;23;1948;-79
2020/12/09 02:33:44;;;;;;;;;;;;;;;;;;6125053;23;1599;-80
2020/12/09 02:36:11;;;;;;;;;;;;;;;;;;6125711;23;1018;-77
2020/12/09 02:38:37;;;;;;;;;;;;;;;;;;6124837;23;1091;-79
2020/12/09 02:41:04;;;;;;;;;;;;;;;;;;6122010;23;1038;-78
2020/12/09 02:43:30;;;;;;;;;;;;;;;;;;6125269;23;1121;-81
2020/12/09 02:45:56;;;;;;;;;;;;;;;;;;6125512;23;1100;-78
2020/12/09 02:48:22;;;;;;;;;;;;;;;;;;6125036;23;995;-79
2020/12/09 02:50:48;;;;;;;;;;;;;;;;;;6125383;23;1107;-79
2020/12/09 02:53:13;;;;;;;;;;;;;;;;;;6125780;23;1933;-79
2020/12/09 02:55:41;;;;;;;;;;;;;;;;;;6126303;23;1016;-80
2020/12/09 02:58:07;;;;;;;;;;;;;;;;;;6126546;23;1054;-80
2020/12/09 03:00:33;;;;;;;;;;;;;;;;;;6124174;23;1074;-78
2020/12/09 03:02:59;;;;;;;;;;;;;;;;;;6099526;23;1430;-79
2020/12/09 03:05:25;;;;;;;;;;;;;;;;;;6126652;23;1073;-80
2020/12/09 03:07:51;;;;;;;;;;;;;;;;;;6124090;23;1038;-80
2020/12/09 03:10:17;;;;;;;;;;;;;;;;;;6121494;23;1463;-78
2020/12/09 03:12:44;;;;;;;;;;;;;;;;;;6123873;23;1893;-79
2020/12/09 03:15:10;;;;;;;;;;;;;;;;;;6123293;23;1487;-79
2020/12/09 03:17:36;;;;;;;;;;;;;;;;;;6125044;23;1003;-80
2020/12/09 03:20:03;;;;;;;;;;;;;;;;;;6124980;23;1509;-79
2020/12/09 03:22:29;;;;;;;;;;;;;;;;;;6125915;23;1078;-80
2020/12/09 03:24:55;;;;;;;;;;;;;;;;;;6126395;23;1180;-79
2020/12/09 03:27:21;;;;;;;;;;;;;;;;;;6098806;23;1130;-79
2020/12/09 03:29:48;;;;;;;;;;;;;;;;;;6122139;23;1760;-79
2020/12/09 03:32:14;;;;;;;;;;;;;;;;;;6124055;23;1954;-79
2020/12/09 03:34:40;;;;;;;;;;;;;;;;;;6126725;23;1057;-78
2020/12/09 03:37:06;;;;;;;;;;;;;;;;;;6125859;23;1432;-79
2020/12/09 03:39:32;;;;;;;;;;;;;;;;;;6124028;23;1003;-79
2020/12/09 03:41:58;;;;;;;;;;;;;;;;;;6124943;23;1054;-80
2020/12/09 03:44:24;;;;;;;;;;;;;;;;;;6125608;23;1425;-79
2020/12/09 03:46:51;;;;;;;;;;;;;;;;;;6124827;23;1420;-80
2020/12/09 03:49:17;;;;;;;;;;;;;;;;;;6123600;23;1064;-79
2020/12/09 03:51:43;;;;;;;;;;;;;;;;;;6124324;23;1931;-79
2020/12/09 03:54:10;;;;;;;;;;;;;;;;;;6122957;23;1098;-79
2020/12/09 03:56:35;;;;;;;;;;;;;;;;;;6125425;23;1647;-80
2020/12/09 03:59:01;;;;;;;;;;;;;;;;;;6125927;23;1350;-79
2020/12/09 04:01:28;;;;;;;;;;;;;;;;;;6125348;23;1087;-80
2020/12/09 04:03:55;;;;;;;;;;;;;;;;;;6124928;23;1096;-80
2020/12/09 04:06:21;;;;;;;;;;;;;;;;;;6125363;23;1002;-80
2020/12/09 04:08:47;;;;;;;;;;;;;;;;;;6124446;23;1038;-81
2020/12/09 04:11:13;;;;;;;;;;;;;;;;;;6124436;23;1513;-80
2020/12/09 04:13:39;;;;;;;;;;;;;;;;;;6126161;23;1940;-79
2020/12/09 04:16:05;;;;;;;;;;;;;;;;;;6126442;23;1588;-79
2020/12/09 04:18:31;;;;;;;;;;;;;;;;;;6125533;23;1248;-79
2020/12/09 04:20:58;;;;;;;;;;;;;;;;;;6126613;23;1111;-80
2020/12/09 04:23:24;;;;;;;;;;;;;;;;;;6126004;23;1042;-80
2020/12/09 04:25:50;;;;;;;;;;;;;;;;;;6114244;23;1118;-79
2020/12/09 04:28:17;;;;;;;;;;;;;;;;;;6126116;23;1466;-80
2020/12/09 04:30:43;;;;;;;;;;;;;;;;;;6126226;23;1290;-80
2020/12/09 04:33:08;;;;;;;;;;;;;;;;;;6126322;23;1938;-80
2020/12/09 04:35:35;;;;;;;;;;;;;;;;;;6127229;23;1160;-79
2020/12/09 04:38:02;;;;;;;;;;;;;;;;;;6125311;23;1516;-80
2020/12/09 04:40:28;;;;;;;;;;;;;;;;;;6126895;23;1122;-80
2020/12/09 04:42:56;;;;;;;;;;;;;;;;;;6126853;23;1066;-79
2020/12/09 04:45:22;;;;;;;;;;;;;;;;;;6126298;23;1110;-80
2020/12/09 04:47:55;;;;;;;;;;;;;;;;;;6127331;23;966;-79
2020/12/09 04:50:23;;;;;;;;;;;;;;;;;;6124926;23;1515;-80
2020/12/09 04:52:55;;;;;;;;;;;;;;;;;;6124997;23;1936;-79
2020/12/09 04:55:25;;;;;;;;;;;;;;;;;;6127774;23;1028;-80
2020/12/09 04:58:12;;;;;;;;;;;;;;;;;;6126852;23;1111;-80
2020/12/09 05:00:40;;;;;;;;;;;;;;;;;;6125336;23;1107;-80
2020/12/09 05:03:13;;;;;;;;;;;;;;;;;;6126640;23;1655;-79
2020/12/09 05:05:39;;;;;;;;;;;;;;;;;;6101838;23;1399;-80
2020/12/09 05:08:06;;;;;;;;;;;;;;;;;;6126887;23;1028;-80
2020/12/09 05:10:33;;;;;;;;;;;;;;;;;;6101197;23;1332;-78
2020/12/09 05:13:03;;;;;;;;;;;;;;;;;;6126177;23;1958;-81
2020/12/09 05:15:33;;;;;;;;;;;;;;;;;;6127632;23;1085;-80
2020/12/09 05:18:03;;;;;;;;;;;;;;;;;;6128338;23;1007;-79
2020/12/09 05:20:32;;;;;;;;;;;;;;;;;;6127589;23;1119;-80
2020/12/09 05:22:58;;;;;;;;;;;;;;;;;;6126393;23;1120;-80
2020/12/09 05:25:25;;;;;;;;;;;;;;;;;;6127705;23;1079;-80
2020/12/09 05:27:52;;;;;;;;;;;;;;;;;;6126756;23;1272;-80
2020/12/09 05:30:36;;;;;;;;;;;;;;;;;;6127703;23;1027;-80
2020/12/09 05:33:03;;;;;;;;;;;;;;;;;;6126908;23;1905;-81
2020/12/09 05:35:29;;;;;;;;;;;;;;;;;;6128802;23;998;-81
2020/12/09 05:38:06;;;;;;;;;;;;;;;;;;6126774;23;1016;-80
2020/12/09 05:40:32;;;;;;;;;;;;;;;;;;6128568;23;1034;-80
2020/12/09 05:43:00;;;;;;;;;;;;;;;;;;6127767;23;1023;-81
2020/12/09 05:45:25;;;;;;;;;;;;;;;;;;6127351;23;1370;-80
2020/12/09 05:48:10;;;;;;;;;;;;;;;;;;6127451;23;1201;-81
2020/12/09 05:50:44;;;;;;;;;;;;;;;;;;6125658;23;1210;-80
2020/12/09 05:53:15;;;;;;;;;;;;;;;;;;6130436;23;1904;-80
2020/12/09 05:55:41;;;;;;;;;;;;;;;;;;6129654;23;1104;-80
2020/12/09 05:58:18;;;;;;;;;;;;;;;;;;6130420;23;1035;-80
2020/12/09 06:01:02;;;;;;;;;;;;;;;;;;6103275;23;1362;-80
2020/12/09 06:03:28;;;;;;;;;;;;;;;;;;6130270;23;1190;-80
2020/12/09 06:06:06;;;;;;;;;;;;;;;;;;6129248;23;1364;-79
2020/12/09 06:08:36;;;;;;;;;;;;;;;;;;6130596;23;1038;-79
2020/12/09 06:11:03;;;;;;;;;;;;;;;;;;6128617;23;1439;-80
2020/12/09 06:13:31;;;;;;;;;;;;;;;;;;6130130;23;1909;-80
2020/12/09 06:15:58;;;;;;;;;;;;;;;;;;6130586;23;1037;-80
2020/12/09 06:18:25;;;;;;;;;;;;;;;;;;6130168;23;1309;-81
2020/12/09 06:20:51;;;;;;;;;;;;;;;;;;6129647;23;1154;-80
2020/12/09 06:23:18;;;;;;;;;;;;;;;;;;6132015;23;1071;-79
2020/12/09 06:25:45;;;;;;;;;;;;;;;;;;6104675;23;1336;-79
2020/12/09 06:28:12;;;;;;;;;;;;;;;;;;6130149;23;1472;-80
2020/12/09 06:30:39;;;;;;;;;;;;;;;;;;6130020;23;1065;-79
2020/12/09 06:33:05;;;;;;;;;;;;;;;;;;6130222;23;1905;-80
2020/12/09 06:35:31;;;;;;;;;;;;;;;;;;6130260;23;1077;-80
2020/12/09 06:38:14;;;;;;;;;;;;;;;;;;6129407;23;1055;-79
2020/12/09 06:40:40;;;;;;;;;;;;;;;;;;6129049;23;1504;-79
2020/12/09 06:43:07;;;;;;;;;;;;;;;;;;6131351;23;1053;-81
2020/12/09 06:45:43;;;;;;;;;;;;;;;;;;6130504;23;1043;-81
2020/12/09 06:48:10;;;;;;;;;;;;;;;;;;6129589;23;1079;-80
2020/12/09 06:50:36;;;;;;;;;;;;;;;;;;6130096;23;1099;-79
2020/12/09 06:53:11;;;;;;;;;;;;;;;;;;6131488;23;1897;-82
2020/12/09 06:55:37;;;;;;;;;;;;;;;;;;6131205;23;1027;-80
2020/12/09 06:58:21;;;;;;;;;;;;;;;;;;6104237;23;1393;-80
2020/12/09 07:00:58;;;;;;;;;;;;;;;;;;6130147;23;1563;-80
2020/12/09 07:03:25;;;;;;;;;;;;;;;;;;6129919;23;1155;-80
2020/12/09 07:05:51;;;;;;;;;;;;;;;;;;6131175;23;1409;-80
2020/12/09 07:08:17;;;;;;;;;;;;;;;;;;6130351;23;1057;-80
2020/12/09 07:10:43;;;;;;;;;;;;;;;;;;6130764;23;1078;-79
2020/12/09 07:13:10;;;;;;;;;;;;;;;;;;6130552;23;1937;-80
2020/12/09 07:15:38;;;;;;;;;;;;;;;;;;6130666;23;1015;-80
2020/12/09 07:18:05;;;;;;;;;;;;;;;;;;6130038;23;1272;-80
2020/12/09 07:20:31;;;;;;;;;;;;;;;;;;6129171;23;1254;-80
2020/12/09 07:22:58;;;;;;;;;;;;;;;;;;6130286;23;1192;-81
2020/12/09 07:25:24;;;;;;;;;;;;;;;;;;6130880;23;1075;-81
2020/12/09 07:27:51;;;;;;;;;;;;;;;;;;6130817;23;1272;-81
2020/12/09 07:30:19;;;;;;;;;;;;;;;;;;6130419;23;1416;-79
2020/12/09 07:32:48;;;;;;;;;;;;;;;;;;6130570;23;1905;-80
2020/12/09 07:35:17;;;;;;;;;;;;;;;;;;6131849;23;1632;-80
2020/12/09 07:37:45;;;;;;;;;;;;;;;;;;6130735;23;1387;-81
2020/12/09 07:40:12;;;;;;;;;;;;;;;;;;6133260;23;1078;-81
2020/12/09 07:42:39;;;;;;;;;;;;;;;;;;6131262;23;1101;-80
2020/12/09 07:45:09;;;;;;;;;;;;;;;;;;6108919;23;1272;-80
2020/12/09 07:47:35;;;;;;;;;;;;;;;;;;6132799;23;1043;-80
2020/12/09 07:50:03;;;;;;;;;;;;;;;;;;6132565;23;1349;-79
2020/12/09 07:52:31;;;;;;;;;;;;;;;;;;6132297;23;1897;-80
2020/12/09 07:54:58;;;;;;;;;;;;;;;;;;6133596;23;1114;-80
2020/12/09 07:57:25;;;;;;;;;;;;;;;;;;6131984;23;1354;-80
2020/12/09 07:59:55;;;;;;;;;;;;;;;;;;6133236;23;1619;-80
2020/12/09 08:02:22;;;;;;;;;;;;;;;;;;6133137;23;1038;-81
2020/12/09 08:04:48;;;;;;;;;;;;;;;;;;6125413;23;1615;-80
2020/12/09 08:07:15;;;;;;;;;;;;;;;;;;6130116;23;1459;-80
2020/12/09 08:09:42;;;;;;;;;;;;;;;;;;6132693;23;1023;-80
2020/12/09 08:12:09;;;;;;;;;;;;;;;;;;6132586;23;1915;-81
2020/12/09 08:14:35;;;;;;;;;;;;;;;;;;6129015;23;1053;-81
2020/12/09 08:17:01;;;;;;;;;;;;;;;;;;6104964;23;1280;-80
2020/12/09 08:19:27;;;;;;;;;;;;;;;;;;6129844;23;1108;-80
2020/12/09 08:22:04;;;;;;;;;;;;;;;;;;6103995;23;1487;-80
2020/12/09 08:24:30;;;;;;;;;;;;;;;;;;6129637;23;1071;-80
2020/12/09 08:26:59;;;;;;;;;;;;;;;;;;6129656;23;999;-80
2020/12/09 08:29:25;;;;;;;;;;;;;;;;;;6129399;23;1062;-81
2020/12/09 08:32:01;;;;;;;;;;;;;;;;;;6128780;23;1226;-80
2020/12/09 08:34:27;;;;;;;;;;;;;;;;;;6130293;23;1163;-81
2020/12/09 08:36:53;;;;;;;;;;;;;;;;;;6128416;23;1373;-80
2020/12/09 08:39:19;;;;;;;;;;;;;;;;;;6128229;23;1224;-80
2020/12/09 08:41:46;;;;;;;;;;;;;;;;;;6128573;23;1075;-79
2020/12/09 08:44:14;;;;;;;;;;;;;;;;;;6129128;23;1147;-80
2020/12/09 08:46:40;;;;;;;;;;;;;;;;;;6129905;23;1081;-81
2020/12/09 08:49:06;;;;;;;;;;;;;;;;;;6131005;23;1081;-79
2020/12/09 08:51:33;;;;;;;;;;;;;;;;;;6081827;23;1249;-81
2020/12/09 08:54:00;;;;;;;;;;;;;;;;;;6132507;23;1897;-80
2020/12/09 08:56:26;;;;;;;;;;;;;;;;;;6136119;23;1054;-81
2020/12/09 08:58:54;;;;;;;;;;;;;;;;;;6136690;23;1298;-81
2020/12/09 09:01:22;;;;;;;;;;;;;;;;;;6135995;23;1286;-82
2020/12/09 09:03:52;;;;;;;;;;;;;;;;;;6134726;23;1063;-81
2020/12/09 09:06:18;;;;;;;;;;;;;;;;;;6135700;23;1558;-81
2020/12/09 09:08:44;;;;;;;;;;;;;;;;;;6137676;23;1110;-81
2020/12/09 09:11:12;;;;;;;;;;;;;;;;;;6138745;23;1249;-81
2020/12/09 09:13:39;;;;;;;;;;;;;;;;;;6138900;23;1878;-81
2020/12/09 09:16:05;;;;;;;;;;;;;;;;;;6110619;23;1509;-82
2020/12/09 09:18:32;;;;;;;;;;;;;;;;;;6116199;23;1291;-82
2020/12/09 09:21:00;;;;;;;;;;;;;;;;;;6141103;23;1175;-82
2020/12/09 09:23:27;;;;;;;;;;;;;;;;;;6142484;23;1341;-82
2020/12/09 09:25:53;;;;;;;;;;;;;;;;;;6115864;23;1032;-82
2020/12/09 09:28:20;;;;;;;;;;;;;;;;;;6138892;23;1085;-81
2020/12/09 09:30:46;;;;;;;;;;;;;;;;;;6141663;23;1502;-82
2020/12/09 09:33:14;;;;;;;;;;;;;;;;;;6137667;23;1897;-81
2020/12/09 09:38:26;;;;;;;;;;;;;;;;;;6107989;23;1036;-82
2020/12/09 09:40:52;;;;;;;;;;;;;;;;;;6141917;23;1590;-80
2020/12/09 09:46:04;;;;;;;;;;;;;;;;;;6134758;23;1062;-82
2020/12/09 09:48:33;;;;;;;;;;;;;;;;;;6135305;23;1067;-82
2020/12/09 10:05:13;;;;;;;;;;;;;;;;;;6143159;23;1584;-82
2020/12/09 10:07:57;;;;;;;;;;;;;;;;;;6146782;23;1482;-81
2020/12/09 10:10:42;;;;;;;;;;;;;;;;;;6146509;23;1146;-82
2020/12/09 10:25:09;;;;;;;;;;;;;;;;;;6107949;23;982;-81
2020/12/09 10:27:36;;;;;;;;;;;;;;;;;;6091174;23;1503;-81
2020/12/09 10:33:11;;;;;;;;;;;;;;;;;;6095367;23;1879;-82
2020/12/09 10:38:37;;;;;;;;;;;;;;;;;;6116872;23;1693;-82
2020/12/09 10:41:11;;;;;;;;;;;;;;;;;;6118035;23;1136;-82
2020/12/09 10:47:01;;;;;;;;;;;;;;;;;;6112221;23;1759;-81
2020/12/09 10:55:59;;;;;;;;;;;;;;;;;;5947605;23;1640;-82
2020/12/09 11:08:01;;;;;;;;;;;;;;;;;;5946323;24;1234;-83
2020/12/09 11:13:56;;;;;;;;;;;;;;;;;;5922306;24;1890;-81
2020/12/09 11:16:55;;;;;;;;;;;;;;;;;;5900306;24;1392;-82
2020/12/09 11:32:26;;;;;;;;;;;;;;;;;;5863295;24;1587;-81
2020/12/09 11:40:37;;;;;;;;;;;;;;;;;;5830046;24;1059;-81
2020/12/09 11:43:09;;;;;;;;;;;;;;;;;;5830684;24;1097;-81
2020/12/09 11:45:41;;;;;;;;;;;;;;;;;;5830166;24;1396;-81
2020/12/09 11:48:13;;;;;;;;;;;;;;;;;;5830767;24;1075;-79
2020/12/09 11:50:41;;;;;;;;;;;;;;;;;;5841619;24;1175;-80
2020/12/09 11:53:07;;;;;;;;;;;;;;;;;;5854006;24;1895;-80
2020/12/09 11:55:34;;;;;;;;;;;;;;;;;;5854094;24;1461;-81
2020/12/09 11:58:00;;;;;;;;;;;;;;;;;;5849848;24;1146;-81
2020/12/09 12:00:28;;;;;;;;;;;;;;;;;;5850232;24;1622;-81
2020/12/09 12:02:54;;;;;;;;;;;;;;;;;;5848178;24;1287;-80
2020/12/09 12:05:23;;;;;;;;;;;;;;;;;;5868014;24;1464;-80
2020/12/09 12:07:50;;;;;;;;;;;;;;;;;;5927037;24;1069;-80
2020/12/09 12:10:16;;;;;;;;;;;;;;;;;;5928951;24;1055;-80
2020/12/09 12:12:42;;;;;;;;;;;;;;;;;;5926119;24;1906;-79
2020/12/09 12:15:09;;;;;;;;;;;;;;;;;;5904048;24;1390;-80
2020/12/09 12:17:35;;;;;;;;;;;;;;;;;;5925236;24;1101;-80
2020/12/09 12:20:01;;;;;;;;;;;;;;;;;;5927025;24;1083;-79
2020/12/09 12:22:27;;;;;;;;;;;;;;;;;;5926168;24;1205;-79
2020/12/09 12:24:54;;;;;;;;;;;;;;;;;;5924760;24;1125;-80
2020/12/09 12:27:21;;;;;;;;;;;;;;;;;;5925694;24;1076;-80
2020/12/09 12:29:47;;;;;;;;;;;;;;;;;;5933767;23;1217;-79
2020/12/09 12:32:13;;;;;;;;;;;;;;;;;;6070845;23;10241;-79
2020/12/09 12:34:47;;;;;;;;;;;;;;;;;;6068711;23;1932;-80
2020/12/09 12:37:13;;;;;;;;;;;;;;;;;;6072722;23;996;-80
2020/12/09 12:39:48;;;;;;;;;;;;;;;;;;6075207;23;1015;-80
2020/12/09 12:42:18;;;;;;;;;;;;;;;;;;6076613;23;1111;-80
2020/12/09 12:44:46;;;;;;;;;;;;;;;;;;6074784;23;1155;-79
2020/12/09 12:47:15;;;;;;;;;;;;;;;;;;6076082;23;1131;-81
2020/12/09 12:49:47;;;;;;;;;;;;;;;;;;6078957;23;1682;-81
2020/12/09 12:52:14;;;;;;;;;;;;;;;;;;6075594;23;1145;-80
2020/12/09 12:54:41;;;;;;;;;;;;;;;;;;6046213;23;1914;-80
2020/12/09 12:57:07;;;;;;;;;;;;;;;;;;6045845;23;1584;-81
2020/12/09 12:59:34;;;;;;;;;;;;;;;;;;6067392;23;1270;-80
2020/12/09 13:02:00;;;;;;;;;;;;;;;;;;6069386;23;1237;-79
2020/12/09 13:04:27;;;;;;;;;;;;;;;;;;6071349;23;1382;-80
2020/12/09 13:06:54;;;;;;;;;;;;;;;;;;6070635;23;1092;-80
2020/12/09 13:09:20;;;;;;;;;;;;;;;;;;6068962;23;1532;-79
2020/12/09 13:11:58;;;;;;;;;;;;;;;;;;6070453;23;1219;-80
2020/12/09 13:14:25;;;;;;;;;;;;;;;;;;6068897;23;1925;-81
2020/12/09 13:16:53;;;;;;;;;;;;;;;;;;6068805;23;1113;-80
2020/12/09 13:19:20;;;;;;;;;;;;;;;;;;6067965;23;1243;-80
2020/12/09 13:21:46;;;;;;;;;;;;;;;;;;6068643;23;1254;-80
2020/12/09 13:24:15;;;;;;;;;;;;;;;;;;6044064;23;1297;-80
2020/12/09 13:26:42;;;;;;;;;;;;;;;;;;6043600;23;1182;-79
2020/12/09 13:29:11;;;;;;;;;;;;;;;;;;6070104;23;1640;-81
2020/12/09 13:31:38;;;;;;;;;;;;;;;;;;6068505;23;1031;-81
2020/12/09 13:34:07;;;;;;;;;;;;;;;;;;6068117;23;1958;-80
2020/12/09 13:36:33;;;;;;;;;;;;;;;;;;6068041;23;1085;-80
2020/12/09 13:38:59;;;;;;;;;;;;;;;;;;6067595;23;1015;-81
2020/12/09 13:41:28;;;;;;;;;;;;;;;;;;6067889;23;1155;-80
2020/12/09 13:43:54;;;;;;;;;;;;;;;;;;6069340;23;992;-80
2020/12/09 13:46:20;;;;;;;;;;;;;;;;;;6067891;23;1044;-80
2020/12/09 13:48:46;;;;;;;;;;;;;;;;;;6067157;23;1099;-79
2020/12/09 13:51:13;;;;;;;;;;;;;;;;;;6067872;23;1596;-81
2020/12/09 13:53:44;;;;;;;;;;;;;;;;;;6066856;23;1897;-80
2020/12/09 13:56:10;;;;;;;;;;;;;;;;;;6066481;23;1486;-80
2020/12/09 13:58:36;;;;;;;;;;;;;;;;;;6067816;23;1123;-81
2020/12/09 14:01:02;;;;;;;;;;;;;;;;;;6069866;23;1282;-81
2020/12/09 14:03:29;;;;;;;;;;;;;;;;;;6069125;23;1102;-78
2020/12/09 14:05:55;;;;;;;;;;;;;;;;;;6069525;23;1406;-80
2020/12/09 14:08:23;;;;;;;;;;;;;;;;;;6067323;23;1549;-80
2020/12/09 14:10:49;;;;;;;;;;;;;;;;;;6068907;23;1115;-80
2020/12/09 14:13:15;;;;;;;;;;;;;;;;;;6068492;23;1926;-79
2020/12/09 14:15:42;;;;;;;;;;;;;;;;;;6071098;23;1148;-81
2020/12/09 14:18:09;;;;;;;;;;;;;;;;;;6074318;23;1713;-80
2020/12/09 14:20:53;;;;;;;;;;;;;;;;;;6073403;23;1115;-81
2020/12/09 14:23:20;;;;;;;;;;;;;;;;;;6072111;23;1046;-81
2020/12/09 14:25:47;;;;;;;;;;;;;;;;;;6071732;23;1113;-80
2020/12/09 14:28:13;;;;;;;;;;;;;;;;;;6073417;23;1118;-81
2020/12/09 14:30:40;;;;;;;;;;;;;;;;;;6073780;23;1570;-80
2020/12/09 14:33:07;;;;;;;;;;;;;;;;;;6074731;23;1874;-80
2020/12/09 14:35:35;;;;;;;;;;;;;;;;;;6073790;23;1143;-81
2020/12/09 14:38:02;;;;;;;;;;;;;;;;;;6072327;23;1061;-79
2020/12/09 14:40:29;;;;;;;;;;;;;;;;;;6074516;23;1639;-82
2020/12/09 14:43:00;;;;;;;;;;;;;;;;;;6072786;23;1158;-81
2020/12/09 14:45:29;;;;;;;;;;;;;;;;;;6071529;23;1223;-80
2020/12/09 14:47:57;;;;;;;;;;;;;;;;;;6071002;23;1076;-79
2020/12/09 14:50:26;;;;;;;;;;;;;;;;;;6072290;23;1111;-80
2020/12/09 14:52:54;;;;;;;;;;;;;;;;;;6070685;23;1941;-80
2020/12/09 14:55:24;;;;;;;;;;;;;;;;;;6073831;23;1636;-81
2020/12/09 14:57:52;;;;;;;;;;;;;;;;;;6074276;23;1429;-79
2020/12/09 15:00:21;;;;;;;;;;;;;;;;;;6070766;23;1147;-79
2020/12/09 15:02:51;;;;;;;;;;;;;;;;;;6069213;23;1493;-81
2020/12/09 15:05:18;;;;;;;;;;;;;;;;;;6066142;23;1039;-80
2020/12/09 15:07:45;;;;;;;;;;;;;;;;;;6065021;23;1072;-80
2020/12/09 15:10:11;;;;;;;;;;;;;;;;;;6041737;23;1264;-79
2020/12/09 15:12:38;;;;;;;;;;;;;;;;;;6069755;23;1221;-80
2020/12/09 15:15:05;;;;;;;;;;;;;;;;;;6043115;23;1950;-80
2020/12/09 15:17:32;;;;;;;;;;;;;;;;;;6069755;23;1000;-80
2020/12/09 15:19:58;;;;;;;;;;;;;;;;;;6069346;23;1115;-80
2020/12/09 15:22:25;;;;;;;;;;;;;;;;;;6070689;23;1319;-80
2020/12/09 15:24:54;;;;;;;;;;;;;;;;;;6071203;23;1414;-80
2020/12/09 15:27:20;;;;;;;;;;;;;;;;;;6070299;23;1739;-80
2020/12/09 15:29:47;;;;;;;;;;;;;;;;;;6043509;23;1558;-80
2020/12/09 15:32:13;;;;;;;;;;;;;;;;;;6068348;23;1051;-80
2020/12/09 15:34:40;;;;;;;;;;;;;;;;;;6069671;23;1945;-79
2020/12/09 15:37:08;;;;;;;;;;;;;;;;;;6067276;23;1467;-81
2020/12/09 15:39:35;;;;;;;;;;;;;;;;;;6065640;23;1390;-80
2020/12/09 15:42:01;;;;;;;;;;;;;;;;;;6066921;23;1152;-80
2020/12/09 15:44:27;;;;;;;;;;;;;;;;;;6066954;23;1527;-80
2020/12/09 15:46:56;;;;;;;;;;;;;;;;;;6069001;23;1504;-80
2020/12/09 15:49:22;;;;;;;;;;;;;;;;;;6069681;23;1607;-80
2020/12/09 15:51:49;;;;;;;;;;;;;;;;;;6066715;23;1170;-79
2020/12/09 15:54:15;;;;;;;;;;;;;;;;;;6066851;23;1905;-80
2020/12/09 15:56:42;;;;;;;;;;;;;;;;;;6068254;23;1044;-80
2020/12/09 15:59:09;;;;;;;;;;;;;;;;;;6067304;23;1088;-81
2020/12/09 16:01:35;;;;;;;;;;;;;;;;;;6069338;23;1042;-80
2020/12/09 16:04:01;;;;;;;;;;;;;;;;;;6041864;23;1357;-80
2020/12/09 16:06:27;;;;;;;;;;;;;;;;;;6065905;23;1115;-81
2020/12/09 16:08:55;;;;;;;;;;;;;;;;;;6067922;23;1068;-80
2020/12/09 16:11:22;;;;;;;;;;;;;;;;;;6067692;23;1079;-79
2020/12/09 16:13:48;;;;;;;;;;;;;;;;;;6068850;23;1956;-80
2020/12/09 16:16:14;;;;;;;;;;;;;;;;;;6068320;23;1509;-80
2020/12/09 16:18:41;;;;;;;;;;;;;;;;;;6042910;23;1494;-80
2020/12/09 16:21:07;;;;;;;;;;;;;;;;;;6054526;23;1424;-80
2020/12/09 16:23:33;;;;;;;;;;;;;;;;;;6096526;23;1238;-80
2020/12/09 16:26:04;;;;;;;;;;;;;;;;;;6096652;23;1523;-80
2020/12/09 16:28:30;;;;;;;;;;;;;;;;;;6095640;23;1702;-80
2020/12/09 16:30:57;;;;;;;;;;;;;;;;;;6095390;23;1177;-80
2020/12/09 16:33:23;;;;;;;;;;;;;;;;;;6095258;23;1901;-81
2020/12/09 16:35:51;;;;;;;;;;;;;;;;;;6093674;23;1362;-80
2020/12/09 16:38:17;;;;;;;;;;;;;;;;;;6095087;23;1067;-80
2020/12/09 16:40:43;;;;;;;;;;;;;;;;;;6096784;23;1496;-79
2020/12/09 16:43:10;;;;;;;;;;;;;;;;;;6096910;23;1509;-80
2020/12/09 16:45:36;;;;;;;;;;;;;;;;;;6070890;23;1387;-79
2020/12/09 16:48:03;;;;;;;;;;;;;;;;;;6095880;23;1087;-80
2020/12/09 16:50:29;;;;;;;;;;;;;;;;;;6095916;23;1031;-79
2020/12/09 16:52:56;;;;;;;;;;;;;;;;;;6070688;23;1335;-80
2020/12/09 16:55:22;;;;;;;;;;;;;;;;;;6097441;23;1949;-80
2020/12/09 16:57:50;;;;;;;;;;;;;;;;;;6095733;23;1087;-80
2020/12/09 17:00:17;;;;;;;;;;;;;;;;;;6096490;23;1581;-79
2020/12/09 17:02:43;;;;;;;;;;;;;;;;;;6097194;23;1135;-80
2020/12/09 17:05:11;;;;;;;;;;;;;;;;;;6096138;23;1102;-80
2020/12/09 17:07:40;;;;;;;;;;;;;;;;;;6096911;23;1083;-80
2020/12/09 17:10:08;;;;;;;;;;;;;;;;;;6100837;23;1087;-80
2020/12/09 17:12:34;;;;;;;;;;;;;;;;;;6100605;23;1189;-82
2020/12/09 17:15:00;;;;;;;;;;;;;;;;;;6102436;23;1882;-80
2020/12/09 17:17:28;;;;;;;;;;;;;;;;;;6100193;23;1408;-80
2020/12/09 17:19:57;;;;;;;;;;;;;;;;;;6074755;23;1222;-80
2020/12/09 17:22:23;;;;;;;;;;;;;;;;;;6069270;23;1540;-81
2020/12/09 17:24:49;;;;;;;;;;;;;;;;;;6068855;23;1099;-80
2020/12/09 17:27:14;;;;;;;;;;;;;;;;;;6069116;23;1174;-81
2020/12/09 17:29:42;;;;;;;;;;;;;;;;;;6069220;23;1203;-81
2020/12/09 17:32:09;;;;;;;;;;;;;;;;;;6070901;23;1039;-81
2020/12/09 17:34:37;;;;;;;;;;;;;;;;;;6070000;23;1896;-79
2020/12/09 17:37:04;;;;;;;;;;;;;;;;;;6071255;23;1517;-79
2020/12/09 17:39:33;;;;;;;;;;;;;;;;;;6073512;23;1659;-80
2020/12/09 17:42:01;;;;;;;;;;;;;;;;;;6072823;23;1079;-80
2020/12/09 17:44:33;;;;;;;;;;;;;;;;;;6070533;23;1011;-80
2020/12/09 17:46:59;;;;;;;;;;;;;;;;;;6067151;23;1251;-79
2020/12/09 17:49:25;;;;;;;;;;;;;;;;;;6069815;23;1076;-79
2020/12/09 17:51:52;;;;;;;;;;;;;;;;;;6070048;23;1210;-79
2020/12/09 17:54:18;;;;;;;;;;;;;;;;;;6070395;23;1898;-80
2020/12/09 17:56:45;;;;;;;;;;;;;;;;;;6069444;23;1147;-80
2020/12/09 17:59:11;;;;;;;;;;;;;;;;;;6069340;23;1176;-80
2020/12/09 18:01:38;;;;;;;;;;;;;;;;;;6068261;23;1027;-79
2020/12/09 18:04:03;;;;;;;;;;;;;;;;;;6068923;23;1069;-80
2020/12/09 18:06:35;;;;;;;;;;;;;;;;;;6067835;23;1034;-80
2020/12/09 18:09:02;;;;;;;;;;;;;;;;;;6067553;23;1144;-79
2020/12/09 18:11:31;;;;;;;;;;;;;;;;;;6068237;23;980;-81
2020/12/09 18:13:57;;;;;;;;;;;;;;;;;;6043138;23;1893;-80
2020/12/09 18:16:24;;;;;;;;;;;;;;;;;;6073161;23;1035;-80
2020/12/09 18:18:50;;;;;;;;;;;;;;;;;;6069348;23;1099;-80
2020/12/09 18:21:16;;;;;;;;;;;;;;;;;;6077167;23;1237;-80
2020/12/09 18:23:44;;;;;;;;;;;;;;;;;;6073465;23;1106;-80
2020/12/09 18:26:15;;;;;;;;;;;;;;;;;;6068947;23;1088;-80
2020/12/09 18:28:41;;;;;;;;;;;;;;;;;;6066733;23;1451;-79